aviador You're here:

KNEW Decoded Metar

NEW ORLEANS/LAKE in LA, USA
Report Time2017-06-29 06:53:00
UTC Time2017-06-29 07:11:49
Flight Rules vfr VFR
Wind120° at 09 kt
W.Decomp.*RWY 09: 7.9 kt HW 4.2 kt RCW
RWY 18: 4.2 kt HW 7.9 kt LCW
W.Rank120° ranks 9
Current wind is above 120° avg. (7.6)
Visibility9999 m
Phenomena:N/A
Clouds:Few 020 Hf
Scattered 120 Hf
Expected CloudBase > 1,200 ft AGL from Temp-Dew spread
CeilingNone
Temp27°C (ISA +12)
Dew Point24°C (84% RH)
Heat Index30.1°C
QNH1015 hPa
Density Alt1,719 ft
Elevation10 ft
Report Wrong Elevation
Raw Report
KNEW 290653Z AUTO 12009KT 10SM FEW020 SCT120 27/24 A2997 RMK AO2
SLP142 T02670239=

Extra information for KNEW:More info

Metar Taf Metar & Taf Last 4 Metars F.Rules Stats Wind Profile Meteogram Temp Stats Airport Information Weather charts Add Link Nearby VenuesMetar ALERT Operation Metar Decoded Social comments

AIRNAV info for KNEW